Time;durP1;ratioP1;P1;durP2;ratioP2;P2;SDS_P1;SDS_P2;PMS_P1;PMS_P2;Temp;Humidity;BMP_temperature;BMP_pressure;BME280_temperature;BME280_humidity;BME280_pressure;Samples;Min_cycle;Max_cycle;Signal;HPM_P1;HPM_P2
2022/07/27 00:00:19;;;;;;;6.95;3.85;;;17.10;99.90;;;;;;4974752;28;20023;-57
2022/07/27 00:02:44;;;;;;;12.57;3.53;;;17.10;99.90;;;;;;4974588;28;20035;-57
2022/07/27 00:05:10;;;;;;;9.65;4.00;;;17.10;99.90;;;;;;4974839;28;20399;-52
2022/07/27 00:07:36;;;;;;;14.82;4.32;;;17.20;99.90;;;;;;4974353;28;20046;-54
2022/07/27 00:10:03;;;;;;;5.10;3.65;;;17.20;99.90;;;;;;4973633;28;20031;-57
2022/07/27 00:12:29;;;;;;;12.70;3.80;;;17.10;99.90;;;;;;4957005;28;20525;-55
2022/07/27 00:14:57;;;;;;;9.18;3.58;;;17.10;99.90;;;;;;4973283;28;20039;-56
2022/07/27 00:17:26;;;;;;;7.13;4.05;;;17.10;99.90;;;;;;4973208;28;20082;-55
2022/07/27 00:19:52;;;;;;;5.72;3.67;;;17.10;99.90;;;;;;4973955;28;20034;-56
2022/07/27 00:22:18;;;;;;;6.38;3.78;;;17.20;99.90;;;;;;4973716;28;20023;-53
2022/07/27 00:24:44;;;;;;;11.77;4.43;;;17.10;99.90;;;;;;4973585;28;20027;-54
2022/07/27 00:27:09;;;;;;;12.27;3.65;;;17.10;99.90;;;;;;4973795;28;20447;-55
2022/07/27 00:29:35;;;;;;;9.40;3.35;;;17.00;99.90;;;;;;4973751;28;20570;-58
2022/07/27 00:32:01;;;;;;;7.53;3.67;;;16.90;99.90;;;;;;4973764;28;20483;-56
2022/07/27 00:34:27;;;;;;;9.35;4.70;;;17.00;99.90;;;;;;4956941;28;20648;-57
2022/07/27 00:36:52;;;;;;;9.40;4.40;;;17.00;99.90;;;;;;4956746;28;20034;-55
2022/07/27 00:39:18;;;;;;;18.75;3.85;;;16.90;99.90;;;;;;4974354;28;20126;-55
2022/07/27 00:41:44;;;;;;;7.50;3.75;;;16.80;99.90;;;;;;4973628;28;20030;-52
2022/07/27 00:44:11;;;;;;;5.28;4.00;;;16.70;99.90;;;;;;4974191;28;20065;-53
2022/07/27 00:46:37;;;;;;;5.53;3.78;;;16.70;99.90;;;;;;4974068;28;20026;-57
2022/07/27 00:49:03;;;;;;;6.90;4.45;;;16.60;99.90;;;;;;4973648;28;20041;-54
2022/07/27 00:51:30;;;;;;;6.80;4.43;;;16.60;99.90;;;;;;4973793;28;20457;-57
2022/07/27 00:53:57;;;;;;;10.00;4.25;;;16.50;99.90;;;;;;4973723;28;20030;-55
2022/07/27 00:56:24;;;;;;;4.90;3.25;;;16.40;99.90;;;;;;4973906;28;20441;-54
2022/07/27 00:58:52;;;;;;;9.93;3.88;;;16.40;99.90;;;;;;4973966;28;20035;-52
2022/07/27 01:01:19;;;;;;;12.55;4.43;;;16.30;99.90;;;;;;4973791;28;20025;-56
2022/07/27 01:03:45;;;;;;;10.52;4.30;;;16.20;99.90;;;;;;4973528;28;20158;-55
2022/07/27 01:06:11;;;;;;;12.65;4.90;;;16.10;99.90;;;;;;4974016;28;20406;-54
2022/07/27 01:08:37;;;;;;;10.38;4.90;;;16.00;99.90;;;;;;4973830;28;20018;-56
2022/07/27 01:11:04;;;;;;;5.93;4.05;;;16.00;99.90;;;;;;4973450;28;20045;-51
2022/07/27 01:13:30;;;;;;;8.63;5.28;;;16.00;99.90;;;;;;4973435;28;20074;-56
2022/07/27 01:15:56;;;;;;;7.45;5.00;;;16.10;99.90;;;;;;4973151;28;20057;-57
2022/07/27 01:18:28;;;;;;;5.28;4.47;;;16.10;99.90;;;;;;4973390;28;20019;-55
2022/07/27 01:20:54;;;;;;;10.00;4.45;;;16.10;99.90;;;;;;4974154;28;20055;-55
2022/07/27 01:23:21;;;;;;;19.70;4.57;;;16.00;99.90;;;;;;4972950;28;20047;-55
2022/07/27 01:25:47;;;;;;;15.52;5.57;;;16.00;99.90;;;;;;4973161;28;20117;-54
2022/07/27 01:28:12;;;;;;;8.98;4.50;;;15.90;99.90;;;;;;4973273;28;20118;-53
2022/07/27 01:30:38;;;;;;;9.80;4.68;;;15.80;99.90;;;;;;4973202;28;20042;-56
2022/07/27 01:33:06;;;;;;;10.05;5.38;;;15.80;99.90;;;;;;4972991;28;20023;-56
2022/07/27 01:35:32;;;;;;;10.18;4.68;;;15.70;99.90;;;;;;4973477;28;20454;-55
2022/07/27 01:37:59;;;;;;;7.72;4.75;;;15.70;99.90;;;;;;4972947;28;20370;-55
2022/07/27 01:40:25;;;;;;;13.85;4.70;;;15.70;99.90;;;;;;4972988;28;20058;-54
2022/07/27 01:42:51;;;;;;;11.15;4.18;;;15.70;99.90;;;;;;4973013;28;20035;-54
2022/07/27 01:45:17;;;;;;;15.80;4.57;;;15.70;99.90;;;;;;4972864;28;20062;-52
2022/07/27 01:47:43;;;;;;;6.78;4.70;;;15.70;99.90;;;;;;4972822;28;20038;-56
2022/07/27 01:50:09;;;;;;;6.53;4.15;;;15.70;99.90;;;;;;4972860;28;20659;-53
2022/07/27 01:52:34;;;;;;;7.47;3.88;;;15.70;99.90;;;;;;4972722;28;20023;-55
2022/07/27 01:55:00;;;;;;;16.42;5.30;;;15.60;99.90;;;;;;4972795;28;20023;-51
2022/07/27 01:57:26;;;;;;;7.90;4.38;;;15.50;99.90;;;;;;4972958;28;20093;-53
2022/07/27 01:59:52;;;;;;;12.40;4.35;;;15.40;99.90;;;;;;4972779;28;20510;-52
2022/07/27 02:02:19;;;;;;;6.15;4.38;;;15.40;99.90;;;;;;4971007;28;20031;-54
2022/07/27 02:04:44;;;;;;;8.48;5.00;;;15.40;99.90;;;;;;4972873;28;20157;-55
2022/07/27 02:07:10;;;;;;;8.40;4.65;;;15.40;99.90;;;;;;4955384;28;20550;-54
2022/07/27 02:09:36;;;;;;;12.57;5.25;;;15.40;99.90;;;;;;4972861;28;20125;-53
2022/07/27 02:14:46;;;;;;;13.75;4.60;;;15.40;99.90;;;;;;4972416;28;20046;-54
2022/07/27 02:17:11;;;;;;;10.48;5.30;;;15.40;99.90;;;;;;4972451;28;20026;-52
2022/07/27 02:19:37;;;;;;;9.98;5.70;;;15.40;99.90;;;;;;4972591;28;20114;-54
2022/07/27 02:22:03;;;;;;;12.30;5.47;;;15.40;99.90;;;;;;4972281;28;20475;-54
2022/07/27 02:24:28;;;;;;;11.13;4.85;;;15.40;99.90;;;;;;4972573;28;20042;-57
2022/07/27 02:26:54;;;;;;;8.40;4.80;;;15.40;99.90;;;;;;4972168;28;20027;-52
2022/07/27 02:29:20;;;;;;;5.90;4.00;;;15.40;99.90;;;;;;4972464;28;20158;-53
2022/07/27 02:31:46;;;;;;;9.68;5.40;;;15.50;99.90;;;;;;4973590;28;20471;-53
2022/07/27 02:34:11;;;;;;;11.05;5.78;;;15.50;99.90;;;;;;4976620;28;20023;-56
2022/07/27 02:36:37;;;;;;;12.85;4.68;;;15.50;99.90;;;;;;4976364;28;20038;-54
2022/07/27 02:39:03;;;;;;;12.88;4.90;;;15.40;99.90;;;;;;4976398;28;20027;-55
2022/07/27 02:41:28;;;;;;;7.82;4.88;;;15.30;99.90;;;;;;4976226;28;20030;-53
2022/07/27 02:43:54;;;;;;;9.65;4.63;;;15.30;99.90;;;;;;4976472;28;20031;-52
2022/07/27 02:46:20;;;;;;;12.80;5.00;;;15.30;99.90;;;;;;4976001;28;20023;-50
2022/07/27 02:48:45;;;;;;;11.23;5.32;;;15.20;99.90;;;;;;4976067;28;20046;-54
2022/07/27 02:51:13;;;;;;;14.45;4.72;;;15.20;99.90;;;;;;4976005;28;20026;-55
2022/07/27 02:53:39;;;;;;;11.75;4.50;;;15.10;99.90;;;;;;4976273;28;20035;-54
2022/07/27 02:56:05;;;;;;;9.77;4.85;;;15.10;99.90;;;;;;4976061;28;20446;-55
2022/07/27 02:58:31;;;;;;;7.00;4.85;;;15.10;99.90;;;;;;4958869;28;20042;-53
2022/07/27 03:00:57;;;;;;;11.98;5.18;;;15.10;99.90;;;;;;4975585;28;20022;-53
2022/07/27 03:03:22;;;;;;;10.73;5.20;;;15.00;99.90;;;;;;4975866;28;20085;-56
2022/07/27 03:05:48;;;;;;;9.45;4.82;;;15.00;99.90;;;;;;4975739;28;20026;-54
2022/07/27 03:08:14;;;;;;;8.57;5.05;;;14.90;99.90;;;;;;4975466;28;20030;-51
2022/07/27 03:10:40;;;;;;;19.83;5.15;;;15.00;99.90;;;;;;4975408;28;20363;-52
2022/07/27 03:13:06;;;;;;;13.00;5.03;;;15.00;99.90;;;;;;4975819;28;20034;-51
2022/07/27 03:15:33;;;;;;;10.80;5.57;;;15.00;99.90;;;;;;4975660;28;20023;-52
2022/07/27 03:17:59;;;;;;;18.95;5.00;;;15.00;99.90;;;;;;4970905;28;20035;-55
2022/07/27 03:20:25;;;;;;;8.05;4.45;;;15.00;99.90;;;;;;4975172;28;20023;-54
2022/07/27 03:22:51;;;;;;;17.17;4.85;;;14.90;99.90;;;;;;4975609;28;20050;-56
2022/07/27 03:25:16;;;;;;;9.05;4.88;;;14.90;99.90;;;;;;4975495;28;20027;-52
2022/07/27 03:27:42;;;;;;;12.52;5.35;;;14.90;99.90;;;;;;4975400;28;20035;-53
2022/07/27 03:30:08;;;;;;;5.93;4.57;;;14.90;99.90;;;;;;4958077;28;20055;-55
2022/07/27 03:32:34;;;;;;;10.00;5.03;;;15.00;99.90;;;;;;4975334;28;20106;-53
2022/07/27 03:34:59;;;;;;;7.97;5.07;;;15.00;99.90;;;;;;4958013;28;20118;-54
2022/07/27 03:37:25;;;;;;;27.25;6.88;;;15.10;99.90;;;;;;4975358;28;20035;-56
2022/07/27 03:39:51;;;;;;;25.33;5.45;;;15.00;99.90;;;;;;4975329;28;20482;-56
2022/07/27 03:42:16;;;;;;;19.50;5.55;;;15.00;99.90;;;;;;4974918;28;20035;-52
2022/07/27 03:44:42;;;;;;;23.15;5.90;;;15.00;99.90;;;;;;4974100;28;20058;-52
2022/07/27 03:47:08;;;;;;;10.30;5.55;;;15.00;99.90;;;;;;4975159;28;20062;-55
2022/07/27 03:49:34;;;;;;;18.58;4.57;;;15.10;99.90;;;;;;4975031;28;20035;-53
2022/07/27 03:51:59;;;;;;;20.27;5.15;;;15.00;99.90;;;;;;4974632;28;20034;-53
2022/07/27 03:54:26;;;;;;;23.15;5.05;;;15.10;99.90;;;;;;4975198;28;20089;-56
2022/07/27 03:56:52;;;;;;;4.78;4.18;;;15.10;99.90;;;;;;4974847;28;20039;-54
2022/07/27 03:59:17;;;;;;;10.85;5.22;;;15.10;99.90;;;;;;4975135;28;20364;-53
2022/07/27 04:01:43;;;;;;;25.38;6.15;;;15.10;99.90;;;;;;4974411;28;20121;-52
2022/07/27 04:04:09;;;;;;;6.47;4.57;;;15.10;99.90;;;;;;4974934;28;20030;-54
2022/07/27 04:06:34;;;;;;;8.32;5.30;;;15.20;99.90;;;;;;4974740;28;20031;-55
2022/07/27 04:09:00;;;;;;;10.85;5.20;;;15.30;99.90;;;;;;4974537;28;20405;-50
2022/07/27 04:11:26;;;;;;;9.95;5.55;;;15.30;99.90;;;;;;4957087;28;20437;-52
2022/07/27 04:13:52;;;;;;;9.18;4.75;;;15.30;99.90;;;;;;4974922;28;20026;-52
2022/07/27 04:16:17;;;;;;;7.00;5.70;;;15.40;99.90;;;;;;4974148;28;20027;-52
2022/07/27 04:18:43;;;;;;;5.82;5.25;;;15.50;99.90;;;;;;4974374;28;20053;-53
2022/07/27 04:21:09;;;;;;;11.23;4.85;;;15.60;99.90;;;;;;4974036;28;20023;-52
2022/07/27 04:23:34;;;;;;;10.20;4.47;;;15.60;99.90;;;;;;4974636;28;20037;-54
2022/07/27 04:26:00;;;;;;;11.80;3.85;;;15.70;99.90;;;;;;4974172;28;20043;-51
2022/07/27 04:28:26;;;;;;;8.68;4.60;;;15.80;99.90;;;;;;4974355;28;20047;-51
2022/07/27 04:30:52;;;;;;;4.82;4.05;;;15.90;99.90;;;;;;4973826;28;20118;-55
2022/07/27 04:33:17;;;;;;;15.68;6.00;;;15.90;99.90;;;;;;4974104;28;20421;-55
2022/07/27 04:35:44;;;;;;;9.63;5.00;;;16.00;99.90;;;;;;4974122;28;20039;-51
2022/07/27 04:38:10;;;;;;;9.13;4.85;;;15.90;99.90;;;;;;4974144;28;20077;-50
2022/07/27 04:40:35;;;;;;;7.00;4.38;;;16.00;99.90;;;;;;4974091;28;20062;-55
2022/07/27 04:43:03;;;;;;;5.22;4.30;;;16.10;99.90;;;;;;4974077;28;20074;-54
2022/07/27 04:45:29;;;;;;;9.55;4.32;;;16.30;99.90;;;;;;4974232;28;20113;-54
2022/07/27 04:47:55;;;;;;;10.00;4.60;;;16.30;99.90;;;;;;4954752;28;20543;-50
2022/07/27 04:50:21;;;;;;;7.28;4.80;;;16.50;99.90;;;;;;4959003;28;20027;-54
2022/07/27 04:52:47;;;;;;;4.82;4.38;;;16.60;99.90;;;;;;4973185;28;20039;-52
2022/07/27 04:55:13;;;;;;;8.98;4.18;;;16.60;99.90;;;;;;4956531;28;20026;-52
2022/07/27 04:57:41;;;;;;;15.02;4.88;;;16.60;99.90;;;;;;4973799;28;20106;-55
2022/07/27 05:00:09;;;;;;;7.85;4.32;;;16.70;99.90;;;;;;4973683;28;20360;-57
2022/07/27 05:02:41;;;;;;;7.38;4.60;;;16.70;99.90;;;;;;4973686;28;20097;-51
2022/07/27 05:05:08;;;;;;;6.68;4.18;;;16.80;99.90;;;;;;4973784;28;20033;-56
2022/07/27 05:07:34;;;;;;;5.43;3.92;;;16.90;99.90;;;;;;4973323;28;20074;-53
2022/07/27 05:09:59;;;;;;;10.25;4.63;;;17.10;99.90;;;;;;4973284;28;20030;-52
2022/07/27 05:12:25;;;;;;;12.95;4.00;;;17.20;99.90;;;;;;4973477;28;20102;-54
2022/07/27 05:14:51;;;;;;;6.90;4.07;;;17.20;99.90;;;;;;4973518;28;20466;-55
2022/07/27 05:17:16;;;;;;;10.80;3.72;;;17.30;99.90;;;;;;4972988;28;20077;-55
2022/07/27 05:19:42;;;;;;;4.88;4.28;;;17.40;99.90;;;;;;4973242;28;20026;-56
2022/07/27 05:22:09;;;;;;;6.68;4.15;;;17.50;99.90;;;;;;4974668;28;20398;-53
2022/07/27 05:24:35;;;;;;;5.97;3.28;;;17.70;99.90;;;;;;4975280;28;20385;-55
2022/07/27 05:27:00;;;;;;;7.20;4.15;;;17.70;99.90;;;;;;4975315;28;20125;-54
2022/07/27 05:29:26;;;;;;;6.18;4.00;;;17.90;99.90;;;;;;4969782;28;20058;-57
2022/07/27 05:31:52;;;;;;;5.72;3.65;;;17.90;99.90;;;;;;4972801;28;20031;-57
2022/07/27 05:34:17;;;;;;;5.63;3.35;;;18.00;99.90;;;;;;4973019;28;20026;-55
2022/07/27 05:36:43;;;;;;;5.88;4.05;;;18.20;99.90;;;;;;4973723;28;20065;-55
2022/07/27 05:39:09;;;;;;;14.25;3.67;;;18.40;99.90;;;;;;4973439;28;20027;-58
2022/07/27 05:41:34;;;;;;;4.10;3.78;;;18.60;99.90;;;;;;4972936;28;20038;-53
2022/07/27 05:44:00;;;;;;;4.82;3.47;;;18.70;99.90;;;;;;4972583;28;20454;-54
2022/07/27 05:46:26;;;;;;;13.07;3.67;;;18.70;99.90;;;;;;4972541;28;20023;-54
2022/07/27 05:48:51;;;;;;;4.85;3.28;;;18.70;99.90;;;;;;4972552;28;20033;-55
2022/07/27 05:51:17;;;;;;;10.75;3.55;;;18.90;99.90;;;;;;4972724;28;20109;-53
2022/07/27 05:53:43;;;;;;;6.00;3.35;;;18.90;99.90;;;;;;4972684;28;20031;-52
2022/07/27 05:56:09;;;;;;;4.72;3.53;;;19.10;99.90;;;;;;4972734;28;20122;-63
2022/07/27 05:58:34;;;;;;;3.95;3.28;;;19.10;99.90;;;;;;4972391;28;20031;-55
2022/07/27 06:01:00;;;;;;;6.78;4.18;;;19.10;99.90;;;;;;4972502;28;20371;-58
2022/07/27 06:03:26;;;;;;;3.90;3.53;;;19.20;99.90;;;;;;4972733;28;20038;-50
2022/07/27 06:07:57;;;;;;;6.47;3.83;;;19.30;99.90;;;;;;4972060;28;20462;-56
2022/07/27 06:08:37;;;;;;;6.85;4.43;;;19.40;99.90;;;;;;4971694;28;20483;-52
2022/07/27 06:11:03;;;;;;;4.85;3.75;;;19.40;99.90;;;;;;4972120;28;20069;-57
2022/07/27 06:13:30;;;;;;;9.32;3.92;;;19.40;99.90;;;;;;4972332;28;20475;-59
2022/07/27 06:15:56;;;;;;;7.20;4.20;;;19.40;99.90;;;;;;4972162;28;20042;-55
2022/07/27 06:18:21;;;;;;;8.32;3.75;;;19.50;99.90;;;;;;4972219;28;20433;-60
2022/07/27 06:20:47;;;;;;;6.22;3.85;;;19.60;99.90;;;;;;4972072;28;20101;-56
2022/07/27 06:23:13;;;;;;;14.50;4.32;;;19.80;99.90;;;;;;4972604;28;20038;-61
2022/07/27 06:25:38;;;;;;;6.28;4.28;;;19.90;99.90;;;;;;4972393;28;20027;-61
2022/07/27 06:28:05;;;;;;;8.18;4.70;;;20.00;99.90;;;;;;4972299;28;20026;-55
2022/07/27 06:30:31;;;;;;;7.95;4.88;;;20.10;99.90;;;;;;4972395;28;20050;-53
2022/07/27 06:32:57;;;;;;;8.98;4.50;;;20.30;99.90;;;;;;4972377;28;20470;-56
2022/07/27 06:35:23;;;;;;;7.32;4.13;;;20.30;99.90;;;;;;4972674;28;20101;-56
2022/07/27 06:37:51;;;;;;;6.05;4.50;;;20.30;99.90;;;;;;4972475;28;20372;-55
2022/07/27 06:40:18;;;;;;;8.02;4.60;;;20.40;99.90;;;;;;4972244;28;20019;-56
2022/07/27 06:42:44;;;;;;;9.70;4.45;;;20.50;99.90;;;;;;4972211;28;20046;-54
2022/07/27 06:45:10;;;;;;;7.03;4.88;;;20.40;99.90;;;;;;4972351;28;20038;-53
2022/07/27 06:47:38;;;;;;;6.00;4.35;;;20.60;99.90;;;;;;4972355;28;20034;-58
2022/07/27 06:50:04;;;;;;;6.38;4.43;;;20.70;99.90;;;;;;4972463;28;20459;-55
2022/07/27 06:52:30;;;;;;;7.95;4.43;;;20.70;99.90;;;;;;4972559;28;20061;-55
2022/07/27 06:54:56;;;;;;;8.85;4.90;;;20.70;99.90;;;;;;4972335;28;20058;-54
2022/07/27 06:57:22;;;;;;;19.70;5.72;;;20.80;99.90;;;;;;4972137;28;20019;-58
2022/07/27 06:59:49;;;;;;;8.93;4.53;;;20.70;99.90;;;;;;4971912;28;20031;-60
2022/07/27 07:02:16;;;;;;;9.82;5.00;;;20.80;99.90;;;;;;4971907;28;20474;-58
2022/07/27 07:04:42;;;;;;;10.40;5.45;;;21.00;99.90;;;;;;4971490;28;20062;-53
2022/07/27 07:07:07;;;;;;;11.02;5.88;;;21.20;99.90;;;;;;4971241;28;20042;-57
2022/07/27 07:09:33;;;;;;;8.13;4.45;;;21.40;99.90;;;;;;4970803;28;20035;-56
2022/07/27 07:11:59;;;;;;;8.32;5.10;;;21.50;99.90;;;;;;4971272;28;20541;-54
2022/07/27 07:14:25;;;;;;;6.45;4.75;;;21.50;99.90;;;;;;4971195;28;20027;-56
2022/07/27 07:16:52;;;;;;;12.25;5.18;;;21.60;99.90;;;;;;4970714;28;20058;-53
2022/07/27 07:19:18;;;;;;;10.48;5.20;;;21.50;99.90;;;;;;4974059;28;20014;-54
2022/07/27 07:21:44;;;;;;;13.63;4.75;;;21.60;99.90;;;;;;4974476;28;20019;-56
2022/07/27 07:24:09;;;;;;;8.38;4.88;;;21.70;99.90;;;;;;4974660;28;20038;-55
2022/07/27 07:26:37;;;;;;;7.10;4.72;;;21.90;99.90;;;;;;4974775;28;20542;-53
2022/07/27 07:29:03;;;;;;;11.05;5.30;;;21.90;99.90;;;;;;4973112;28;20051;-56
2022/07/27 07:31:28;;;;;;;7.13;5.32;;;21.90;99.90;;;;;;4973026;28;20026;-56
2022/07/27 07:33:54;;;;;;;8.00;5.55;;;22.00;99.90;;;;;;4973172;28;20061;-54
2022/07/27 07:36:20;;;;;;;11.20;5.13;;;22.10;99.90;;;;;;4974072;28;20383;-55
2022/07/27 07:38:46;;;;;;;8.50;5.63;;;22.40;99.90;;;;;;4973546;28;20077;-54
2022/07/27 07:41:12;;;;;;;15.23;6.10;;;22.50;99.90;;;;;;4973914;28;20027;-57
2022/07/27 07:43:39;;;;;;;13.82;6.10;;;22.40;99.90;;;;;;4956500;28;20027;-56
2022/07/27 07:46:05;;;;;;;10.18;5.63;;;22.30;99.90;;;;;;4974655;28;20067;-54
2022/07/27 07:48:30;;;;;;;8.48;5.75;;;22.30;99.90;;;;;;4974323;28;20054;-53
2022/07/27 07:50:56;;;;;;;7.82;5.53;;;22.40;99.90;;;;;;4956780;28;20027;-56
2022/07/27 07:53:23;;;;;;;9.10;5.78;;;22.40;99.90;;;;;;4973791;28;20039;-58
2022/07/27 07:55:49;;;;;;;9.32;5.50;;;22.60;99.90;;;;;;4973658;28;20031;-53
2022/07/27 07:58:14;;;;;;;13.13;5.60;;;22.80;99.90;;;;;;4973853;28;20271;-57
2022/07/27 08:00:41;;;;;;;8.93;7.40;;;22.90;99.90;;;;;;4974004;28;20023;-56
2022/07/27 08:03:06;;;;;;;12.70;5.22;;;23.10;99.90;;;;;;4974256;28;20031;-56
2022/07/27 08:05:32;;;;;;;6.53;5.40;;;23.20;99.90;;;;;;4973825;28;20550;-52
2022/07/27 08:07:58;;;;;;;7.50;5.50;;;23.20;99.90;;;;;;4973669;28;20094;-56
2022/07/27 08:10:24;;;;;;;11.77;4.60;;;23.20;99.90;;;;;;4973776;28;20038;-56
2022/07/27 08:12:52;;;;;;;9.80;5.43;;;23.10;99.90;;;;;;4973157;28;20027;-56
2022/07/27 08:15:19;;;;;;;9.93;5.78;;;23.40;99.90;;;;;;4973830;28;20019;-56
2022/07/27 08:17:44;;;;;;;6.72;5.25;;;23.50;99.90;;;;;;4973710;28;20486;-54
2022/07/27 08:20:13;;;;;;;7.95;4.18;;;23.70;99.90;;;;;;4973609;28;20026;-55
2022/07/27 08:22:39;;;;;;;7.70;4.28;;;23.60;99.90;;;;;;4973600;28;20035;-59
2022/07/27 08:25:06;;;;;;;37.92;23.55;;;23.80;99.90;;;;;;4973467;28;20023;-55
2022/07/27 08:27:32;;;;;;;13.63;5.55;;;23.90;99.90;;;;;;4974296;28;20038;-57
2022/07/27 08:29:58;;;;;;;7.47;4.05;;;24.10;99.90;;;;;;4972565;28;20051;-58
2022/07/27 08:32:24;;;;;;;9.43;4.68;;;24.00;99.90;;;;;;4972988;28;20545;-56
2022/07/27 08:34:50;;;;;;;23.00;4.28;;;23.90;99.90;;;;;;4973321;28;20097;-59
2022/07/27 08:37:16;;;;;;;5.38;4.82;;;24.00;99.90;;;;;;4973008;28;20320;-58
2022/07/27 08:39:42;;;;;;;7.03;4.65;;;24.10;99.90;;;;;;4973101;28;20034;-57
2022/07/27 08:42:09;;;;;;;11.70;4.60;;;24.20;99.90;;;;;;4972895;28;20030;-52
2022/07/27 08:44:38;;;;;;;5.22;4.32;;;24.50;99.90;;;;;;4973168;28;20026;-57
2022/07/27 08:47:04;;;;;;;7.75;4.63;;;24.90;99.90;;;;;;4972912;28;20084;-54
2022/07/27 08:49:31;;;;;;;8.82;5.15;;;24.70;99.80;;;;;;4955499;28;20031;-52
2022/07/27 08:51:58;;;;;;;6.40;5.10;;;24.50;99.00;;;;;;4972646;28;20486;-52
2022/07/27 08:54:24;;;;;;;6.03;4.85;;;24.60;99.90;;;;;;4953683;28;20031;-57
2022/07/27 08:56:51;;;;;;;6.32;4.90;;;24.70;99.90;;;;;;4936089;28;20098;-55
2022/07/27 08:59:17;;;;;;;5.55;4.38;;;24.80;99.40;;;;;;4953562;28;20015;-57
2022/07/27 09:01:42;;;;;;;6.85;4.15;;;24.90;98.40;;;;;;4953406;28;20534;-52
2022/07/27 09:04:08;;;;;;;5.90;4.00;;;25.10;99.00;;;;;;4971204;28;20022;-54
2022/07/27 09:06:49;;;;;;;4.68;3.80;;;25.30;96.60;;;;;;4972726;28;20037;-53
2022/07/27 09:09:17;;;;;;;9.38;3.88;;;25.30;96.70;;;;;;4972499;28;20069;-56
2022/07/27 09:11:43;;;;;;;3.80;3.22;;;25.20;97.50;;;;;;4971988;28;20019;-55
2022/07/27 09:14:13;;;;;;;6.80;3.70;;;25.40;95.90;;;;;;4972581;28;20027;-57
2022/07/27 09:16:39;;;;;;;11.35;3.70;;;25.30;96.20;;;;;;4972498;28;20037;-58
2022/07/27 09:19:07;;;;;;;7.50;3.55;;;25.80;95.30;;;;;;4972378;28;20022;-58
2022/07/27 09:21:35;;;;;;;4.60;3.30;;;25.80;96.40;;;;;;4972116;28;20026;-54
2022/07/27 09:24:12;;;;;;;7.07;3.35;;;25.80;97.40;;;;;;4972397;28;20022;-55
2022/07/27 09:26:38;;;;;;;9.43;4.63;;;25.80;97.70;;;;;;4972759;28;20142;-55
2022/07/27 09:29:05;;;;;;;6.93;4.35;;;25.80;97.00;;;;;;4972493;28;20043;-52
2022/07/27 09:31:32;;;;;;;8.43;3.95;;;25.40;96.40;;;;;;4973440;28;20371;-58
2022/07/27 09:34:00;;;;;;;5.22;4.53;;;25.20;97.40;;;;;;4973199;28;20386;-56
2022/07/27 09:36:28;;;;;;;8.07;4.07;;;25.10;97.30;;;;;;4972673;28;20511;-58
2022/07/27 09:39:04;;;;;;;11.85;3.67;;;25.30;97.80;;;;;;4972160;28;20054;-58
2022/07/27 09:41:43;;;;;;;4.75;3.97;;;25.30;98.10;;;;;;4964555;28;20019;-58
2022/07/27 09:44:10;;;;;;;4.60;3.92;;;25.40;97.20;;;;;;4964185;28;20386;-59
2022/07/27 09:46:38;;;;;;;7.38;4.10;;;25.30;97.30;;;;;;4972812;28;20557;-53
2022/07/27 09:49:05;;;;;;;6.75;4.25;;;25.50;97.60;;;;;;4954688;28;20063;-63
2022/07/27 09:51:31;;;;;;;5.45;3.70;;;25.60;97.00;;;;;;4943044;28;20131;-58
2022/07/27 09:54:04;;;;;;;5.57;4.28;;;25.50;97.50;;;;;;4942768;28;20046;-55
2022/07/27 09:56:30;;;;;;;;;;;25.30;96.20;;;;;;4944343;28;20031;-55
2022/07/27 09:58:58;;;;;;;7.97;3.80;;;25.40;97.10;;;;;;4942602;28;19910;-54
2022/07/27 10:01:39;;;;;;;10.63;4.10;;;25.40;96.10;;;;;;4942645;28;20463;-56
2022/07/27 10:04:06;;;;;;;8.13;3.55;;;25.60;97.50;;;;;;4942758;28;20046;-56
2022/07/27 10:06:33;;;;;;;7.05;3.95;;;26.00;96.30;;;;;;4942650;28;20098;-56
2022/07/27 10:09:00;;;;;;;9.32;4.28;;;25.90;97.10;;;;;;4942549;28;20031;-55
2022/07/27 10:11:27;;;;;;;8.57;4.13;;;26.00;95.10;;;;;;4943406;28;20043;-58
2022/07/27 10:13:54;;;;;;;4.97;3.50;;;25.60;95.80;;;;;;4961375;28;20019;-57
2022/07/27 10:16:26;;;;;;;5.50;3.72;;;25.70;96.00;;;;;;4954533;28;20050;-57
2022/07/27 10:19:04;;;;;;;6.45;3.63;;;25.80;96.30;;;;;;4962438;28;20045;-56
2022/07/27 10:21:33;;;;;;;8.20;3.97;;;25.30;96.30;;;;;;4961217;28;20039;-54
2022/07/27 10:24:07;;;;;;;10.52;3.67;;;25.60;96.60;;;;;;4961856;28;20038;-55
2022/07/27 10:26:34;;;;;;;3.47;2.70;;;25.70;96.00;;;;;;4952474;28;20035;-54
2022/07/27 10:29:12;;;;;;;7.32;3.88;;;25.90;97.10;;;;;;4942464;28;20043;-57
2022/07/27 10:31:39;;;;;;;5.72;3.28;;;25.80;95.00;;;;;;4942630;28;20039;-58
2022/07/27 10:34:07;;;;;;;5.43;3.40;;;25.90;97.00;;;;;;4944706;28;20023;-55
2022/07/27 10:36:33;;;;;;;4.55;3.28;;;26.00;95.70;;;;;;4963001;28;20081;-55
2022/07/27 10:39:02;;;;;;;5.28;3.80;;;26.40;95.40;;;;;;4973592;28;20106;-56
2022/07/27 10:41:39;;;;;;;4.82;3.75;;;26.30;95.20;;;;;;4972482;28;20027;-56
2022/07/27 10:44:17;;;;;;;4.88;3.80;;;26.70;95.60;;;;;;4972287;28;20358;-56
2022/07/27 10:46:55;;;;;;;5.70;4.28;;;27.10;94.50;;;;;;4971752;28;20031;-53
2022/07/27 10:49:30;;;;;;;8.93;4.10;;;27.30;94.90;;;;;;4969738;28;20114;-56
2022/07/27 10:51:57;;;;;;;6.63;3.53;;;27.70;94.10;;;;;;4970766;28;20023;-56
2022/07/27 10:54:34;;;;;;;7.57;3.72;;;28.10;93.70;;;;;;4975740;28;20034;-56
2022/07/27 10:57:03;;;;;;;5.30;3.80;;;28.30;93.10;;;;;;4975802;28;20081;-52
2022/07/27 10:59:43;;;;;;;6.03;3.67;;;28.30;94.30;;;;;;4976112;28;20019;-58
2022/07/27 11:02:10;;;;;;;7.07;4.32;;;28.10;92.70;;;;;;4950575;28;20520;-56
2022/07/27 11:04:44;;;;;;;5.55;3.55;;;28.00;93.50;;;;;;4964563;28;20031;-54
2022/07/27 11:07:10;;;;;;;9.15;4.55;;;27.80;92.80;;;;;;4954534;28;20648;-56
2022/07/27 11:09:37;;;;;;;5.50;3.85;;;27.60;93.20;;;;;;4944765;28;20051;-56
2022/07/27 11:12:05;;;;;;;5.13;3.83;;;27.40;93.30;;;;;;4946817;28;20062;-54
2022/07/27 11:14:41;;;;;;;5.63;3.42;;;27.20;93.50;;;;;;4947809;28;20035;-58
2022/07/27 11:17:08;;;;;;;4.55;3.45;;;27.40;94.00;;;;;;4945946;28;20035;-52
2022/07/27 11:19:33;;;;;;;9.57;4.10;;;27.30;93.60;;;;;;4946269;28;20031;-54
2022/07/27 11:21:59;;;;;;;7.40;3.25;;;27.50;93.30;;;;;;4944167;28;20037;-56
2022/07/27 11:24:26;;;;;;;5.53;3.50;;;27.60;94.40;;;;;;4943803;28;20039;-56
2022/07/27 11:26:53;;;;;;;9.20;4.30;;;27.60;93.30;;;;;;4946977;28;20475;-57
2022/07/27 11:29:22;;;;;;;5.28;4.03;;;27.30;93.30;;;;;;4944209;28;20181;-54
2022/07/27 11:31:51;;;;;;;8.30;3.70;;;27.00;93.40;;;;;;4943121;28;20474;-56
2022/07/27 11:34:25;;;;;;;5.88;3.63;;;26.60;93.00;;;;;;4945267;28;22251;-58
2022/07/27 11:36:50;;;;;;;8.07;4.35;;;26.70;93.80;;;;;;4945844;28;20471;-58
2022/07/27 11:39:24;;;;;;;11.65;5.15;;;26.50;94.40;;;;;;4944509;28;20055;-55
2022/07/27 11:41:58;;;;;;;6.40;4.28;;;26.30;94.00;;;;;;4945502;28;20034;-55
2022/07/27 11:44:25;;;;;;;9.63;5.18;;;26.30;94.10;;;;;;4945587;28;20035;-56
2022/07/27 11:46:52;;;;;;;11.43;5.05;;;26.40;93.60;;;;;;4945665;28;20035;-56
2022/07/27 11:49:27;;;;;;;7.45;4.82;;;26.50;94.80;;;;;;4943469;28;20034;-56
2022/07/27 11:51:58;;;;;;;15.40;5.25;;;27.20;93.40;;;;;;4947782;28;20023;-55
2022/07/27 11:54:28;;;;;;;14.45;5.47;;;27.70;91.90;;;;;;4928514;28;20031;-54
2022/07/27 11:56:56;;;;;;;14.10;4.78;;;28.60;92.00;;;;;;4945250;28;20031;-56
2022/07/27 11:59:33;;;;;;;15.00;4.97;;;28.10;92.10;;;;;;4945005;28;20087;-55
2022/07/27 12:02:02;;;;;;;11.82;5.45;;;28.60;92.30;;;;;;4943672;28;20058;-54
2022/07/27 12:04:28;;;;;;;13.85;4.70;;;28.60;90.80;;;;;;4948177;28;20031;-54
2022/07/27 12:07:31;;;;;;;5.30;4.05;;;28.20;91.20;;;;;;4944946;28;20027;-51
2022/07/27 12:10:03;;;;;;;16.58;4.82;;;27.70;92.50;;;;;;4926990;28;20051;-58
2022/07/27 12:12:33;;;;;;;9.48;4.75;;;27.00;92.20;;;;;;4943718;28;20217;-58
2022/07/27 12:15:13;;;;;;;6.07;4.22;;;27.00;94.00;;;;;;4942987;28;20114;-57
2022/07/27 12:17:41;;;;;;;6.50;4.22;;;27.10;92.80;;;;;;4944308;28;20039;-57
2022/07/27 12:20:12;;;;;;;7.18;4.85;;;26.80;92.80;;;;;;4948850;28;20134;-54
2022/07/27 12:22:39;;;;;;;11.25;5.63;;;26.70;93.40;;;;;;4953505;28;20034;-57
2022/07/27 12:25:17;;;;;;;12.18;5.95;;;26.20;93.50;;;;;;4954049;28;20031;-55
2022/07/27 12:27:57;;;;;;;13.30;4.85;;;25.70;93.60;;;;;;4967750;28;20015;-55
2022/07/27 12:30:41;;;;;;;10.90;5.85;;;25.60;93.70;;;;;;4973128;28;20051;-51
2022/07/27 12:33:27;;;;;;;11.32;5.82;;;26.00;93.50;;;;;;4973413;28;20038;-57
2022/07/27 12:35:52;;;;;;;9.10;4.82;;;26.20;93.40;;;;;;4974371;28;20031;-58
2022/07/27 12:38:21;;;;;;;11.73;6.35;;;26.20;95.20;;;;;;4975260;28;20041;-58
2022/07/27 12:40:49;;;;;;;8.30;6.35;;;26.10;94.40;;;;;;4974556;28;20042;-56
2022/07/27 12:43:17;;;;;;;7.97;5.53;;;26.10;94.40;;;;;;4974241;28;20018;-55
2022/07/27 12:45:44;;;;;;;13.70;5.97;;;25.90;93.90;;;;;;4974162;28;20108;-56